Time;durP1;ratioP1;P1;durP2;ratioP2;P2;SDS_P1;SDS_P2;PMS_P1;PMS_P2;Temp;Humidity;BMP_temperature;BMP_pressure;BME280_temperature;BME280_humidity;BME280_pressure;Samples;Min_cycle;Max_cycle;Signal;HPM_P1;HPM_P2
2022/09/08 00:02:22;;;;;;;32.08;29.13;;;16.80;99.90;;;;;;5067045;28;20997;-73
2022/09/08 00:04:47;;;;;;;33.00;30.00;;;16.80;99.90;;;;;;5065656;28;20072;-73
2022/09/08 00:07:13;;;;;;;31.35;28.67;;;16.70;99.90;;;;;;5068423;28;20065;-75
2022/09/08 00:09:38;;;;;;;31.23;28.30;;;16.70;99.90;;;;;;5094257;28;20033;-74
2022/09/08 00:12:05;;;;;;;31.42;28.50;;;16.80;99.90;;;;;;5095376;28;20062;-75
2022/09/08 00:14:33;;;;;;;29.80;26.73;;;16.70;99.90;;;;;;5088186;28;20093;-74
2022/09/08 00:16:59;;;;;;;32.33;29.27;;;16.70;99.90;;;;;;5090314;28;20056;-75
2022/09/08 00:19:26;;;;;;;31.65;28.80;;;16.70;99.90;;;;;;5092781;28;20020;-74
2022/09/08 00:21:52;;;;;;;31.65;28.85;;;16.70;99.90;;;;;;5081878;28;20202;-73
2022/09/08 00:24:18;;;;;;;34.78;31.70;;;16.70;99.90;;;;;;5077775;28;20032;-73
2022/09/08 00:26:44;;;;;;;32.50;29.50;;;16.70;99.90;;;;;;5086892;28;20092;-75
2022/09/08 00:29:09;;;;;;;33.70;30.77;;;16.70;99.90;;;;;;5094426;28;20402;-75
2022/09/08 00:31:39;;;;;;;33.78;30.77;;;16.70;99.90;;;;;;5095248;28;20450;-74
2022/09/08 00:34:05;;;;;;;35.50;32.40;;;16.70;99.90;;;;;;5093871;28;20051;-75
2022/09/08 00:36:31;;;;;;;37.83;34.10;;;16.70;99.90;;;;;;5094168;28;20020;-75
2022/09/08 00:38:58;;;;;;;36.88;33.58;;;16.70;99.90;;;;;;5096632;28;20039;-75
2022/09/08 00:41:24;;;;;;;37.77;34.30;;;16.70;99.90;;;;;;5102696;28;20040;-74
2022/09/08 00:44:19;;;;;;;36.85;33.35;;;16.70;99.90;;;;;;5113537;28;20250;-73
2022/09/08 00:46:45;;;;;;;36.25;32.90;;;16.70;99.90;;;;;;5111953;28;20036;-75
2022/09/08 00:49:18;;;;;;;33.50;30.42;;;16.80;99.90;;;;;;5099250;28;20036;-73
2022/09/08 00:51:48;;;;;;;34.92;31.77;;;16.80;99.90;;;;;;5096832;28;20082;-74
2022/09/08 00:54:16;;;;;;;35.88;32.33;;;16.80;99.90;;;;;;5096818;28;20505;-75
2022/09/08 00:56:43;;;;;;;34.70;31.65;;;16.70;99.90;;;;;;5092996;28;20558;-74
2022/09/08 00:59:09;;;;;;;34.28;30.92;;;16.80;99.90;;;;;;5099183;28;20478;-74
2022/09/08 01:01:35;;;;;;;34.85;31.60;;;16.80;99.90;;;;;;5089910;28;20071;-75
2022/09/08 01:04:03;;;;;;;35.50;32.50;;;16.80;99.90;;;;;;5093569;28;20083;-74
2022/09/08 01:13:05;;;;;;;33.53;30.63;;;16.90;99.90;;;;;;5092768;28;20509;-75
2022/09/08 01:15:30;;;;;;;33.90;31.08;;;16.90;99.90;;;;;;5097362;28;20044;-74
2022/09/08 01:17:56;;;;;;;34.63;31.40;;;17.00;99.90;;;;;;5078977;28;20086;-74
2022/09/08 01:20:52;;;;;;;34.28;31.17;;;17.00;99.90;;;;;;5095018;28;20036;-75
2022/09/08 01:23:24;;;;;;;34.40;31.17;;;17.00;99.90;;;;;;5094885;28;20060;-75
2022/09/08 01:26:01;;;;;;;33.60;30.65;;;17.00;99.90;;;;;;5076644;28;20059;-76
2022/09/08 01:28:34;;;;;;;34.08;31.08;;;17.10;99.90;;;;;;5098474;28;20052;-75
2022/09/08 01:31:03;;;;;;;32.83;30.02;;;17.10;99.90;;;;;;5096426;28;20055;-74
2022/09/08 01:33:29;;;;;;;32.88;29.88;;;17.10;99.90;;;;;;5092248;28;20035;-75
2022/09/08 01:35:55;;;;;;;35.37;31.97;;;17.20;99.90;;;;;;5087747;28;20064;-75
2022/09/08 01:38:23;;;;;;;33.20;30.33;;;17.20;99.90;;;;;;5068943;28;20161;-75
2022/09/08 01:40:49;;;;;;;;;;;17.20;99.90;;;;;;5069507;28;20040;-75
2022/09/08 01:43:15;;;;;;;35.85;32.45;;;17.20;99.90;;;;;;5069391;28;20032;-75
2022/09/08 01:45:41;;;;;;;34.88;31.60;;;17.20;99.90;;;;;;5084851;28;20051;-75
2022/09/08 01:48:07;;;;;;;35.25;32.20;;;17.20;99.90;;;;;;5064806;28;20040;-75
2022/09/08 01:50:33;;;;;;;34.03;30.95;;;17.20;99.90;;;;;;5087067;28;20501;-75
2022/09/08 01:52:59;;;;;;;34.65;31.63;;;17.20;99.90;;;;;;5084667;28;20043;-75
2022/09/08 01:55:24;;;;;;;37.33;34.00;;;17.20;99.90;;;;;;5051970;28;20124;-75
2022/09/08 01:57:50;;;;;;;37.17;33.83;;;17.20;99.90;;;;;;5084661;28;20094;-75
2022/09/08 02:00:16;;;;;;;35.25;31.95;;;17.20;99.90;;;;;;5086253;28;20032;-75
2022/09/08 02:02:42;;;;;;;36.22;33.08;;;17.20;99.90;;;;;;5080293;28;20036;-71
2022/09/08 02:05:08;;;;;;;37.20;33.90;;;17.10;99.90;;;;;;5103632;28;20086;-71
2022/09/08 02:07:36;;;;;;;34.78;31.83;;;17.10;99.90;;;;;;5094869;28;20063;-77
2022/09/08 02:10:04;;;;;;;36.58;33.08;;;17.10;99.90;;;;;;5101438;28;20036;-75
2022/09/08 02:12:30;;;;;;;35.13;32.10;;;17.10;99.90;;;;;;5107264;28;20111;-75
2022/09/08 02:14:55;;;;;;;35.97;32.85;;;17.10;99.90;;;;;;5103252;28;20051;-75
2022/09/08 02:17:21;;;;;;;37.17;33.83;;;17.10;99.90;;;;;;5087706;28;20039;-76
2022/09/08 02:19:47;;;;;;;36.55;33.17;;;17.10;99.90;;;;;;5081596;28;20040;-76
2022/09/08 02:22:12;;;;;;;37.00;33.65;;;17.00;99.90;;;;;;5085216;28;20071;-76
2022/09/08 02:24:38;;;;;;;36.67;33.28;;;17.00;99.90;;;;;;5070373;28;20703;-76
2022/09/08 02:27:06;;;;;;;38.90;35.33;;;17.10;99.90;;;;;;5086813;28;20047;-77
2022/09/08 02:29:32;;;;;;;39.13;35.30;;;17.00;99.90;;;;;;5085068;28;20032;-76
2022/09/08 02:31:58;;;;;;;37.33;33.83;;;17.10;99.90;;;;;;5051311;28;20049;-76
2022/09/08 02:34:23;;;;;;;35.28;32.05;;;17.10;99.90;;;;;;5069120;28;20042;-76
2022/09/08 02:36:49;;;;;;;38.53;34.90;;;17.10;99.90;;;;;;5088061;28;20127;-76
2022/09/08 02:39:19;;;;;;;38.35;35.00;;;17.10;99.90;;;;;;5065705;28;20043;-77
2022/09/08 02:41:45;;;;;;;38.05;34.63;;;17.10;99.90;;;;;;5066104;28;20414;-77
2022/09/08 02:44:14;;;;;;;36.83;33.45;;;17.10;99.90;;;;;;5088425;28;20036;-77
2022/09/08 02:46:40;;;;;;;36.88;33.70;;;17.10;99.90;;;;;;5089761;28;20032;-76
2022/09/08 02:49:08;;;;;;;39.17;35.55;;;17.10;99.90;;;;;;5083727;28;20089;-77
2022/09/08 02:51:33;;;;;;;39.08;35.65;;;17.10;99.90;;;;;;5085080;28;20698;-76
2022/09/08 02:53:59;;;;;;;39.78;36.13;;;17.10;99.90;;;;;;5086498;28;20044;-76
2022/09/08 02:56:25;;;;;;;38.50;34.78;;;17.10;99.90;;;;;;5063659;28;20406;-76
2022/09/08 02:58:51;;;;;;;37.92;34.42;;;17.10;99.90;;;;;;5073431;28;20040;-76
2022/09/08 03:01:16;;;;;;;35.13;32.05;;;17.10;99.90;;;;;;5085967;28;20106;-76
2022/09/08 03:03:42;;;;;;;39.35;35.72;;;17.10;99.90;;;;;;5081960;28;20032;-75
2022/09/08 03:06:08;;;;;;;36.78;33.22;;;17.10;99.90;;;;;;5086780;28;20044;-76
2022/09/08 03:08:34;;;;;;;38.10;34.55;;;17.10;99.90;;;;;;5065662;28;20063;-77
2022/09/08 03:11:01;;;;;;;37.92;34.22;;;17.10;99.90;;;;;;5069277;28;20052;-77
2022/09/08 03:13:27;;;;;;;38.70;35.00;;;17.20;99.90;;;;;;5086535;28;21281;-76
2022/09/08 03:15:54;;;;;;;39.08;35.30;;;17.20;99.90;;;;;;5087500;28;20048;-76
2022/09/08 03:18:20;;;;;;;38.05;34.58;;;17.30;99.90;;;;;;5068965;28;20048;-76
2022/09/08 03:20:45;;;;;;;37.30;33.90;;;17.30;99.90;;;;;;5089179;28;20149;-77
2022/09/08 03:23:18;;;;;;;37.78;34.28;;;17.30;99.90;;;;;;5087696;28;20075;-76
2022/09/08 03:25:46;;;;;;;37.38;33.92;;;17.30;99.90;;;;;;5089783;28;20032;-75
2022/09/08 03:28:18;;;;;;;38.42;34.55;;;17.20;99.90;;;;;;5098054;28;20070;-76
2022/09/08 03:30:44;;;;;;;35.72;32.45;;;17.20;99.90;;;;;;5097526;28;20062;-75
2022/09/08 03:33:09;;;;;;;38.55;35.17;;;17.20;99.90;;;;;;5086511;28;20040;-75
2022/09/08 03:35:36;;;;;;;38.60;34.90;;;17.20;99.90;;;;;;5089258;28;20040;-76
2022/09/08 03:38:02;;;;;;;39.92;36.03;;;17.10;99.90;;;;;;5090057;28;20063;-77
2022/09/08 03:40:28;;;;;;;37.92;34.28;;;17.10;99.90;;;;;;5087604;28;20402;-76
2022/09/08 03:42:54;;;;;;;39.97;36.35;;;17.10;99.90;;;;;;5050552;28;20451;-73
2022/09/08 03:45:20;;;;;;;38.15;34.60;;;17.00;99.90;;;;;;5069617;28;20052;-76
2022/09/08 03:47:47;;;;;;;40.22;36.33;;;17.00;99.90;;;;;;5065219;28;20082;-75
2022/09/08 03:50:15;;;;;;;37.30;33.92;;;17.00;99.90;;;;;;5067192;28;20040;-75
2022/09/08 03:52:41;;;;;;;37.85;34.38;;;17.00;99.90;;;;;;5064586;28;20124;-74
2022/09/08 03:55:08;;;;;;;40.13;36.33;;;17.00;99.90;;;;;;5068910;28;20549;-75
2022/09/08 03:57:34;;;;;;;42.15;38.08;;;16.90;99.90;;;;;;5062693;28;20045;-74
2022/09/08 04:00:00;;;;;;;38.35;34.72;;;16.90;99.90;;;;;;5067221;28;20064;-72
2022/09/08 04:02:27;;;;;;;40.58;36.72;;;16.90;99.90;;;;;;5068739;28;20029;-72
2022/09/08 04:04:55;;;;;;;42.10;38.10;;;16.90;99.90;;;;;;5070672;28;20049;-71
2022/09/08 04:07:23;;;;;;;41.25;37.38;;;16.90;99.90;;;;;;5068463;28;20067;-74
2022/09/08 04:09:49;;;;;;;41.42;37.50;;;16.90;99.90;;;;;;5064471;28;20041;-72
2022/09/08 04:12:15;;;;;;;43.78;39.83;;;16.80;99.90;;;;;;5068888;28;20033;-72
2022/09/08 04:14:42;;;;;;;41.50;37.63;;;16.80;99.90;;;;;;5067659;28;20545;-72
2022/09/08 04:17:08;;;;;;;41.72;37.83;;;16.80;99.90;;;;;;5068025;28;20038;-72
2022/09/08 04:19:34;;;;;;;41.90;38.10;;;16.80;99.90;;;;;;5065604;28;20056;-73
2022/09/08 04:22:00;;;;;;;43.58;39.50;;;16.70;99.90;;;;;;5068419;28;20044;-72
2022/09/08 04:24:25;;;;;;;44.30;40.03;;;16.70;99.90;;;;;;5077662;28;20067;-75
2022/09/08 04:26:51;;;;;;;43.20;39.13;;;16.70;99.90;;;;;;5090465;28;20039;-75
2022/09/08 04:29:17;;;;;;;42.50;38.45;;;16.70;99.90;;;;;;5093341;28;20024;-73
2022/09/08 04:31:44;;;;;;;42.88;38.92;;;16.70;99.90;;;;;;5095512;28;20084;-75
2022/09/08 04:34:10;;;;;;;44.38;39.97;;;16.80;99.90;;;;;;5086078;28;20100;-73
2022/09/08 04:36:36;;;;;;;43.00;38.92;;;16.80;99.90;;;;;;5083508;28;20053;-73
2022/09/08 04:39:02;;;;;;;43.30;39.38;;;16.70;99.90;;;;;;5065177;28;20041;-74
2022/09/08 04:41:30;;;;;;;43.63;39.42;;;16.80;99.90;;;;;;5089090;28;20048;-73
2022/09/08 04:44:03;;;;;;;43.45;39.15;;;16.90;99.90;;;;;;5091522;28;20040;-73
2022/09/08 04:46:31;;;;;;;42.95;38.97;;;16.90;99.90;;;;;;5088579;28;20119;-73
2022/09/08 04:48:57;;;;;;;42.28;38.28;;;16.90;99.90;;;;;;5086860;28;20101;-73
2022/09/08 04:51:23;;;;;;;41.60;37.65;;;16.90;99.90;;;;;;5088845;28;20105;-73
2022/09/08 04:53:52;;;;;;;43.83;39.53;;;16.90;99.90;;;;;;5071373;28;20040;-72
2022/09/08 04:56:18;;;;;;;41.67;37.72;;;17.00;99.90;;;;;;5088565;28;20040;-74
2022/09/08 04:58:45;;;;;;;41.55;37.75;;;17.00;99.90;;;;;;5089002;28;20043;-74
2022/09/08 05:01:18;;;;;;;43.72;39.83;;;17.00;99.90;;;;;;5087207;28;20430;-74
2022/09/08 05:03:44;;;;;;;42.13;37.95;;;17.00;99.90;;;;;;5082024;28;20039;-75
2022/09/08 05:06:15;;;;;;;40.40;36.45;;;17.00;99.90;;;;;;5070684;28;20140;-74
2022/09/08 05:08:50;;;;;;;42.42;38.13;;;17.00;99.90;;;;;;5108112;28;20024;-74
2022/09/08 05:11:17;;;;;;;40.90;37.05;;;17.00;99.90;;;;;;5096762;28;20036;-74
2022/09/08 05:13:43;;;;;;;44.58;40.35;;;17.00;99.90;;;;;;5084190;28;20044;-77
2022/09/08 05:16:14;;;;;;;41.15;37.25;;;17.00;99.90;;;;;;5086585;28;20063;-76
2022/09/08 05:18:42;;;;;;;40.55;36.55;;;;;;;;;;5086320;28;20044;-77
2022/09/08 05:21:08;;;;;;;38.85;35.05;;;17.00;99.90;;;;;;5052673;28;20028;-77
2022/09/08 05:23:35;;;;;;;43.42;39.22;;;17.10;99.90;;;;;;5087282;28;20051;-76
2022/09/08 05:26:06;;;;;;;41.10;37.33;;;17.10;99.90;;;;;;5082809;28;20036;-75
2022/09/08 05:28:37;;;;;;;42.75;38.75;;;17.10;99.90;;;;;;5091983;28;20109;-76
2022/09/08 05:31:04;;;;;;;40.00;36.28;;;17.10;99.90;;;;;;5088189;28;20120;-77
2022/09/08 05:33:30;;;;;;;38.78;35.20;;;17.10;99.90;;;;;;5072031;28;20090;-76
2022/09/08 05:35:56;;;;;;;49.97;42.85;;;17.10;99.90;;;;;;5088949;28;20501;-76
2022/09/08 05:38:22;;;;;;;32.70;27.05;;;17.10;99.90;;;;;;5096158;28;20072;-72
2022/09/08 05:40:48;;;;;;;28.17;25.33;;;17.00;99.90;;;;;;5100753;28;20040;-76
2022/09/08 05:43:15;;;;;;;27.02;24.33;;;17.00;99.90;;;;;;5057411;28;20040;-75
2022/09/08 05:45:49;;;;;;;30.20;27.15;;;16.80;99.90;;;;;;5103650;28;20048;-75
2022/09/08 05:48:15;;;;;;;45.25;39.00;;;16.90;99.90;;;;;;5104751;28;20491;-75
2022/09/08 05:50:42;;;;;;;52.08;43.50;;;16.90;99.90;;;;;;5092203;28;20398;-75
2022/09/08 05:53:08;;;;;;;46.15;41.28;;;16.90;99.90;;;;;;5079110;28;20111;-75
2022/09/08 05:55:34;;;;;;;46.35;41.58;;;16.90;99.90;;;;;;5115156;28;20032;-74
2022/09/08 05:57:59;;;;;;;45.95;41.17;;;16.90;99.90;;;;;;5089410;28;20036;-74
2022/09/08 06:00:25;;;;;;;51.47;44.70;;;16.90;99.90;;;;;;5088358;28;20036;-76
2022/09/08 06:02:51;;;;;;;47.90;42.97;;;16.90;99.90;;;;;;5090158;28;20035;-74
2022/09/08 06:05:22;;;;;;;48.42;43.30;;;16.90;99.90;;;;;;5087391;28;20044;-74
2022/09/08 06:07:48;;;;;;;50.20;45.00;;;16.90;99.90;;;;;;5082664;28;20041;-74
2022/09/08 06:10:15;;;;;;;45.65;40.75;;;16.90;99.90;;;;;;5089198;28;20391;-75
2022/09/08 06:12:41;;;;;;;46.17;41.60;;;17.00;99.90;;;;;;5065337;28;20036;-74
2022/09/08 06:15:08;;;;;;;48.50;42.78;;;16.90;99.90;;;;;;5088130;28;20047;-74
2022/09/08 06:17:33;;;;;;;46.70;41.70;;;17.00;99.90;;;;;;5084390;28;20409;-74
2022/09/08 06:19:59;;;;;;;43.35;38.75;;;17.00;99.90;;;;;;5070728;28;20044;-72
2022/09/08 06:22:25;;;;;;;47.97;42.78;;;17.10;99.90;;;;;;5051087;28;20390;-73
2022/09/08 06:24:51;;;;;;;46.35;41.28;;;17.20;99.90;;;;;;5087834;28;20173;-72
2022/09/08 06:27:43;;;;;;;49.38;43.97;;;17.10;99.90;;;;;;5090334;28;20060;-72
2022/09/08 06:30:13;;;;;;;52.40;46.45;;;17.00;99.90;;;;;;5088054;28;20136;-72
2022/09/08 06:32:52;;;;;;;50.13;44.83;;;17.00;99.90;;;;;;5090536;28;20047;-71
2022/09/08 06:35:34;;;;;;;50.85;45.30;;;17.00;99.90;;;;;;5087150;28;20055;-70
2022/09/08 06:38:05;;;;;;;47.60;42.80;;;;;;;;;;5086136;28;20554;-69
2022/09/08 06:40:45;;;;;;;51.08;45.63;;;17.00;99.90;;;;;;5088814;28;20368;-69
2022/09/08 06:43:27;;;;;;;51.63;46.33;;;17.00;99.90;;;;;;5087919;28;20036;-72
2022/09/08 06:45:56;;;;;;;47.60;42.67;;;17.00;99.90;;;;;;5093819;28;20126;-71
2022/09/08 06:48:32;;;;;;;48.15;43.15;;;17.00;99.90;;;;;;5088022;28;20427;-72
2022/09/08 06:51:22;;;;;;;47.53;42.58;;;16.90;99.90;;;;;;5089903;28;20032;-70
2022/09/08 06:54:15;;;;;;;47.17;42.33;;;16.90;99.90;;;;;;5087704;28;20055;-69
2022/09/08 06:56:41;;;;;;;47.70;42.67;;;16.90;99.90;;;;;;5088656;28;20362;-70
2022/09/08 06:59:18;;;;;;;48.80;43.70;;;16.90;99.90;;;;;;5070775;28;20048;-72
2022/09/08 07:01:48;;;;;;;48.38;43.17;;;16.90;99.90;;;;;;5085475;28;20044;-70
2022/09/08 07:04:44;;;;;;;49.25;43.92;;;16.80;99.90;;;;;;5089707;28;20040;-70
2022/09/08 07:07:28;;;;;;;47.67;42.25;;;16.90;99.90;;;;;;5073274;28;20106;-70
2022/09/08 07:10:21;;;;;;;47.15;41.65;;;16.80;99.90;;;;;;5070242;28;20039;-70
2022/09/08 07:13:12;;;;;;;43.30;38.88;;;16.90;99.90;;;;;;5071061;28;20043;-67
2022/09/08 07:15:47;;;;;;;43.95;39.00;;;16.90;99.90;;;;;;5086146;28;20489;-67
2022/09/08 07:18:46;;;;;;;44.95;40.05;;;16.90;99.90;;;;;;5074167;28;20040;-67
2022/09/08 07:21:24;;;;;;;42.75;38.45;;;16.90;99.90;;;;;;5089096;28;20032;-66
2022/09/08 07:23:51;;;;;;;44.33;39.78;;;16.90;99.90;;;;;;5087707;28;20432;-70
2022/09/08 07:26:47;;;;;;;42.47;37.90;;;16.90;99.90;;;;;;5092218;28;20043;-70
2022/09/08 07:29:29;;;;;;;45.08;40.22;;;17.00;99.90;;;;;;5087845;28;20028;-73
2022/09/08 07:31:56;;;;;;;47.28;42.28;;;17.00;99.90;;;;;;5082287;28;20093;-71
2022/09/08 07:34:30;;;;;;;44.63;39.97;;;17.00;99.90;;;;;;5087799;28;20115;-71
2022/09/08 07:37:19;;;;;;;45.47;40.88;;;17.10;99.90;;;;;;5089131;28;20090;-71
2022/09/08 07:39:55;;;;;;;45.00;40.28;;;17.10;99.90;;;;;;5090398;28;20516;-71
2022/09/08 07:42:21;;;;;;;43.15;38.50;;;17.10;99.90;;;;;;5069518;28;20049;-71
2022/09/08 07:44:53;;;;;;;47.00;41.85;;;17.20;99.90;;;;;;5069111;28;20406;-70
2022/09/08 07:47:22;;;;;;;50.72;45.15;;;17.20;99.90;;;;;;5068089;28;20386;-71
2022/09/08 07:50:11;;;;;;;48.28;43.13;;;17.20;99.90;;;;;;5070507;28;20048;-71
2022/09/08 07:52:52;;;;;;;47.80;40.88;;;17.20;99.90;;;;;;5070601;28;20044;-73
2022/09/08 07:55:41;;;;;;;45.45;40.45;;;17.20;99.90;;;;;;5068666;28;20051;-71
2022/09/08 07:58:19;;;;;;;42.83;38.13;;;17.20;99.90;;;;;;5064619;28;20450;-71
2022/09/08 08:01:01;;;;;;;;;;;17.20;99.90;;;;;;5069851;28;20044;-71
2022/09/08 08:03:33;;;;;;;40.17;35.95;;;17.20;99.90;;;;;;5069523;28;20395;-71
2022/09/08 08:06:11;;;;;;;42.33;37.45;;;17.20;99.90;;;;;;5068469;28;20048;-71
2022/09/08 08:08:45;;;;;;;39.55;31.52;;;17.20;99.90;;;;;;5068997;28;20063;-72
2022/09/08 08:11:23;;;;;;;29.90;26.67;;;17.20;99.90;;;;;;5068741;28;20045;-72
2022/09/08 08:14:19;;;;;;;33.67;26.52;;;17.20;99.90;;;;;;5065281;28;20052;-71
2022/09/08 08:17:10;;;;;;;27.30;21.65;;;17.30;99.90;;;;;;5065484;28;20072;-71
2022/09/08 08:19:46;;;;;;;21.95;19.67;;;17.20;99.90;;;;;;5066032;28;20036;-71
2022/09/08 08:22:30;;;;;;;22.98;19.65;;;17.20;99.90;;;;;;5069848;28;20407;-71
2022/09/08 08:25:12;;;;;;;20.95;18.85;;;17.20;99.90;;;;;;5069154;28;20059;-72
2022/09/08 08:28:11;;;;;;;23.77;19.88;;;17.30;99.90;;;;;;5068020;28;20680;-72
2022/09/08 08:30:45;;;;;;;21.63;18.70;;;17.20;99.90;;;;;;5067423;28;20773;-72
2022/09/08 08:33:22;;;;;;;20.20;17.52;;;17.30;99.90;;;;;;5066225;28;20045;-72
2022/09/08 08:35:52;;;;;;;19.40;14.38;;;17.40;99.90;;;;;;5068217;28;20386;-72
2022/09/08 08:38:22;;;;;;;16.08;12.75;;;17.50;99.90;;;;;;5069098;28;20047;-71
2022/09/08 08:40:58;;;;;;;13.85;12.13;;;17.40;99.90;;;;;;5069663;28;20102;-70
2022/09/08 08:43:55;;;;;;;15.82;12.13;;;17.40;99.90;;;;;;5072222;28;20174;-72
2022/09/08 08:46:44;;;;;;;14.80;13.25;;;17.50;99.90;;;;;;5090702;28;20040;-71
2022/09/08 08:49:40;;;;;;;13.57;11.70;;;17.50;99.90;;;;;;5089287;28;20044;-70
2022/09/08 08:52:27;;;;;;;13.20;11.47;;;17.50;99.90;;;;;;5084437;28;20028;-69
2022/09/08 08:55:15;;;;;;;11.23;10.13;;;17.60;99.90;;;;;;5072786;28;20044;-71
2022/09/08 08:58:04;;;;;;;10.10;9.02;;;17.60;99.90;;;;;;5087956;28;20040;-70
2022/09/08 09:00:50;;;;;;;13.40;9.35;;;17.70;99.90;;;;;;5073001;28;20084;-68
2022/09/08 09:03:40;;;;;;;10.23;8.63;;;17.70;99.90;;;;;;5083804;28;20076;-70
2022/09/08 09:06:17;;;;;;;8.23;7.32;;;17.70;99.90;;;;;;5088494;28;20044;-70
2022/09/08 09:09:04;;;;;;;9.27;7.85;;;17.70;99.90;;;;;;5092544;28;20047;-69
2022/09/08 09:11:42;;;;;;;7.90;7.07;;;17.70;99.90;;;;;;5073433;28;20134;-69
2022/09/08 09:14:48;;;;;;;9.73;7.70;;;17.70;99.90;;;;;;5079925;28;20309;-69
2022/09/08 09:17:41;;;;;;;8.60;7.57;;;17.80;99.90;;;;;;5092547;28;20047;-69
2022/09/08 09:20:40;;;;;;;10.13;7.45;;;17.70;99.90;;;;;;5092690;28;20036;-69
2022/09/08 09:23:18;;;;;;;7.90;6.68;;;17.70;99.90;;;;;;5085170;28;20460;-68
2022/09/08 09:26:18;;;;;;;8.30;7.60;;;17.80;99.90;;;;;;5095860;28;20051;-69
2022/09/08 09:29:08;;;;;;;7.35;6.65;;;17.80;99.90;;;;;;5078990;28;20049;-68
2022/09/08 09:31:53;;;;;;;9.40;6.60;;;17.70;99.90;;;;;;5086672;28;20047;-69
2022/09/08 09:34:37;;;;;;;7.22;6.63;;;17.70;99.90;;;;;;5067314;28;20490;-69
2022/09/08 09:37:33;;;;;;;7.15;6.13;;;17.70;99.90;;;;;;5068988;28;20078;-69
2022/09/08 09:40:06;;;;;;;5.23;4.63;;;17.70;99.90;;;;;;5089552;28;20051;-69
2022/09/08 09:42:47;;;;;;;4.75;4.10;;;17.60;99.90;;;;;;5084533;28;20056;-69
2022/09/08 09:45:24;;;;;;;6.07;3.88;;;17.60;99.90;;;;;;5089501;28;20045;-69
2022/09/08 09:48:34;;;;;;;4.90;3.90;;;17.60;99.90;;;;;;5084038;28;20048;-69
2022/09/08 09:51:40;;;;;;;4.75;3.72;;;17.60;99.90;;;;;;5083798;28;20498;-69
2022/09/08 09:54:18;;;;;;;7.05;4.15;;;17.60;99.90;;;;;;5064223;28;20403;-69
2022/09/08 09:57:24;;;;;;;5.85;3.63;;;17.70;99.90;;;;;;5052770;28;20070;-70
2022/09/08 10:00:04;;;;;;;4.63;4.10;;;17.60;99.90;;;;;;5086497;28;20486;-69
2022/09/08 10:03:01;;;;;;;3.63;3.33;;;17.60;99.90;;;;;;5087206;28;20043;-69
2022/09/08 10:05:35;;;;;;;4.03;3.63;;;17.70;99.90;;;;;;5086489;28;20033;-69
2022/09/08 10:08:40;;;;;;;6.65;3.20;;;17.70;99.90;;;;;;5083702;28;20048;-69
2022/09/08 10:11:09;;;;;;;6.20;3.72;;;17.70;99.90;;;;;;5086818;28;20374;-69
2022/09/08 10:14:07;;;;;;;4.25;3.10;;;17.80;99.90;;;;;;5086693;28;20084;-70
2022/09/08 10:17:05;;;;;;;6.03;3.70;;;17.70;99.90;;;;;;5045326;28;20058;-68
2022/09/08 10:19:39;;;;;;;4.78;3.08;;;17.70;99.90;;;;;;5071581;28;20047;-69
2022/09/08 10:22:11;;;;;;;3.60;3.10;;;17.70;99.90;;;;;;5082164;28;20119;-69
2022/09/08 10:24:55;;;;;;;3.95;2.90;;;17.70;99.90;;;;;;5082679;28;20042;-69
2022/09/08 10:27:23;;;;;;;3.53;3.20;;;17.60;99.90;;;;;;5069582;28;20056;-70
2022/09/08 10:30:10;;;;;;;4.45;3.47;;;17.70;99.90;;;;;;5085255;28;20040;-69
2022/09/08 10:32:54;;;;;;;4.73;3.60;;;17.60;99.90;;;;;;5086377;28;20036;-69
2022/09/08 10:35:42;;;;;;;4.55;3.70;;;17.60;99.90;;;;;;5051607;28;20072;-69
2022/09/08 10:38:32;;;;;;;5.13;3.63;;;17.60;99.90;;;;;;5029639;28;20090;-69
2022/09/08 10:41:16;;;;;;;5.85;4.35;;;17.60;99.90;;;;;;5086781;28;20054;-70
2022/09/08 10:43:53;;;;;;;4.97;4.50;;;17.60;99.90;;;;;;5085071;28;20068;-69
2022/09/08 10:46:22;;;;;;;;;;;17.60;99.90;;;;;;5065924;28;20551;-69
2022/09/08 10:48:53;;;;;;;8.93;5.13;;;17.60;99.90;;;;;;5066316;28;19920;-69
2022/09/08 10:51:38;;;;;;;5.20;4.80;;;17.70;99.90;;;;;;5086050;28;20039;-70
2022/09/08 10:54:28;;;;;;;5.50;5.10;;;17.70;99.90;;;;;;5088049;28;20046;-69
2022/09/08 10:56:58;;;;;;;4.43;4.13;;;17.70;99.90;;;;;;5069222;28;20120;-69
2022/09/08 11:00:00;;;;;;;4.45;4.10;;;17.70;99.90;;;;;;5083131;28;20032;-70
2022/09/08 11:02:58;;;;;;;5.05;4.65;;;17.70;99.90;;;;;;5080499;28;20044;-70
2022/09/08 11:05:34;;;;;;;5.53;5.07;;;17.70;99.90;;;;;;5053770;28;20075;-70
2022/09/08 11:08:42;;;;;;;5.68;5.18;;;17.70;99.90;;;;;;5068201;28;20406;-69
2022/09/08 11:11:35;;;;;;;5.68;5.18;;;17.90;99.90;;;;;;5086508;28;20040;-69
2022/09/08 11:14:44;;;;;;;5.07;4.68;;;17.80;99.90;;;;;;5081052;28;20075;-69
2022/09/08 11:17:23;;;;;;;5.60;5.03;;;17.80;99.90;;;;;;5076418;28;20048;-70
2022/09/08 11:20:07;;;;;;;5.30;4.80;;;17.90;99.90;;;;;;5079772;28;20170;-71
2022/09/08 11:22:37;;;;;;;7.95;5.47;;;17.90;99.90;;;;;;5082590;28;20395;-71
2022/09/08 11:25:16;;;;;;;5.97;5.47;;;18.00;99.90;;;;;;5085382;28;20052;-69
2022/09/08 11:28:19;;;;;;;5.72;5.22;;;18.20;99.90;;;;;;5087121;28;20343;-69
2022/09/08 11:30:50;;;;;;;6.15;5.65;;;18.10;99.90;;;;;;5085913;28;20367;-69
2022/09/08 11:33:59;;;;;;;6.43;5.93;;;18.10;99.90;;;;;;5087895;28;20040;-70
2022/09/08 11:37:15;;;;;;;6.88;6.18;;;18.20;99.90;;;;;;5087712;28;20502;-69
2022/09/08 11:40:00;;;;;;;7.35;6.75;;;18.20;99.90;;;;;;5010139;28;20660;-69
2022/09/08 11:42:50;;;;;;;6.60;6.10;;;18.30;99.90;;;;;;5006793;28;20049;-70
2022/09/08 11:45:24;;;;;;;6.72;6.13;;;18.40;99.90;;;;;;5006164;28;20049;-69
2022/09/08 11:48:06;;;;;;;7.03;6.32;;;18.40;99.90;;;;;;5008863;28;20054;-69
2022/09/08 11:50:43;;;;;;;8.05;6.60;;;18.40;99.90;;;;;;4995896;28;20523;-69
2022/09/08 11:53:33;;;;;;;7.25;6.63;;;18.50;99.90;;;;;;5008251;28;20046;-70
2022/09/08 11:56:18;;;;;;;7.45;6.85;;;18.50;99.90;;;;;;4989122;28;20493;-69
2022/09/08 11:59:01;;;;;;;8.60;7.80;;;18.50;99.90;;;;;;5003448;28;20362;-70
2022/09/08 12:01:48;;;;;;;8.10;7.43;;;18.60;99.90;;;;;;5004976;28;20421;-68
2022/09/08 12:04:23;;;;;;;9.27;8.48;;;18.70;99.90;;;;;;5008504;28;20054;-68
2022/09/08 12:07:11;;;;;;;9.18;8.38;;;18.80;99.90;;;;;;5013229;28;20081;-68
2022/09/08 12:09:55;;;;;;;8.70;7.90;;;18.80;99.90;;;;;;5013306;28;20050;-69
2022/09/08 12:12:34;;;;;;;9.82;8.93;;;19.00;99.90;;;;;;5012025;28;20038;-70
2022/09/08 12:15:26;;;;;;;10.38;9.02;;;19.00;99.90;;;;;;5084844;28;20054;-69
2022/09/08 12:18:28;;;;;;;10.48;9.60;;;19.10;99.90;;;;;;4977846;28;20050;-71
2022/09/08 12:21:26;;;;;;;11.00;9.98;;;19.10;99.90;;;;;;4992840;28;20479;-69
2022/09/08 12:24:00;;;;;;;11.20;10.20;;;19.30;99.90;;;;;;4990878;28;20090;-69
2022/09/08 12:26:44;;;;;;;10.75;9.82;;;19.50;99.90;;;;;;4970598;28;20094;-70
2022/09/08 12:29:34;;;;;;;12.10;11.00;;;19.60;99.90;;;;;;4991016;28;20054;-69
2022/09/08 12:32:53;;;;;;;11.45;10.25;;;19.80;99.90;;;;;;4976027;28;20078;-72
2022/09/08 12:35:41;;;;;;;10.70;9.60;;;19.90;99.90;;;;;;4941243;29;20074;-71
2022/09/08 12:38:43;;;;;;;11.02;9.90;;;20.10;99.90;;;;;;4942711;29;20067;-71
2022/09/08 12:41:26;;;;;;;10.77;9.77;;;20.20;99.90;;;;;;4939364;29;20111;-71
2022/09/08 12:44:15;;;;;;;10.60;9.70;;;20.40;99.90;;;;;;4932152;29;20043;-73
2022/09/08 12:47:00;;;;;;;12.10;8.85;;;20.50;99.90;;;;;;4937647;29;20509;-70
2022/09/08 12:50:00;;;;;;;10.02;8.90;;;20.50;99.90;;;;;;4943418;29;20558;-71
2022/09/08 12:52:40;;;;;;;9.40;8.50;;;20.60;99.90;;;;;;4936172;29;20135;-70
2022/09/08 12:55:17;;;;;;;9.88;8.98;;;20.60;99.90;;;;;;4992791;28;20049;-70
2022/09/08 12:58:15;;;;;;;9.05;8.20;;;20.70;99.90;;;;;;5018101;28;20057;-71
2022/09/08 13:00:50;;;;;;;7.78;7.10;;;20.40;99.90;;;;;;5031061;28;20095;-71
2022/09/08 13:03:36;;;;;;;9.18;7.75;;;20.80;99.90;;;;;;5017997;28;20054;-71
2022/09/08 13:06:32;;;;;;;8.02;7.20;;;20.80;99.90;;;;;;5006198;28;20083;-71
2022/09/08 13:09:01;;;;;;;7.43;6.82;;;20.90;99.90;;;;;;5045691;28;20534;-70
2022/09/08 13:11:51;;;;;;;7.75;6.93;;;20.90;99.90;;;;;;5090581;28;20420;-71
2022/09/08 13:14:45;;;;;;;6.85;6.13;;;21.00;99.90;;;;;;5074434;28;20060;-70
2022/09/08 13:17:38;;;;;;;6.55;5.95;;;21.10;99.90;;;;;;5059897;28;20052;-71
2022/09/08 13:20:19;;;;;;;8.15;6.70;;;21.00;99.90;;;;;;5064419;28;20060;-71
2022/09/08 13:23:03;;;;;;;7.18;6.38;;;21.10;99.90;;;;;;5086276;28;20043;-71
2022/09/08 13:25:41;;;;;;;7.93;6.00;;;21.20;99.90;;;;;;5087923;28;20036;-70